createdAt,value
2018-06-05T00:00:09.228Z,6.03
2018-06-05T00:02:38.197Z,5.10
2018-06-05T00:05:07.213Z,4.97
2018-06-05T00:07:36.192Z,5.33
2018-06-05T00:10:05.194Z,5.25
2018-06-05T00:12:34.182Z,4.10
2018-06-05T00:15:03.153Z,4.17
2018-06-05T00:17:32.129Z,4.92
2018-06-05T00:20:01.101Z,6.58
2018-06-05T00:22:30.058Z,5.28
2018-06-05T00:24:59.072Z,5.20
2018-06-05T00:27:27.763Z,4.28
2018-06-05T00:29:56.748Z,4.12
2018-06-05T00:32:25.726Z,4.28
2018-06-05T00:34:54.749Z,6.50
2018-06-05T00:37:23.776Z,4.22
2018-06-05T00:39:52.917Z,5.08
2018-06-05T00:42:21.600Z,6.15
2018-06-05T00:44:50.602Z,6.28
2018-06-05T00:47:19.576Z,4.33
2018-06-05T00:49:48.748Z,4.42
2018-06-05T00:52:17.721Z,4.15
2018-06-05T00:54:46.706Z,4.30
2018-06-05T00:57:15.705Z,4.58
2018-06-05T00:59:44.676Z,4.20
2018-06-05T01:02:13.665Z,4.58
2018-06-05T01:04:42.342Z,4.28
2018-06-05T01:07:11.302Z,4.50
2018-06-05T01:09:40.265Z,4.47
2018-06-05T01:12:08.956Z,4.15
2018-06-05T01:14:37.925Z,4.50
2018-06-05T01:17:06.929Z,5.12
2018-06-05T01:19:35.909Z,4.87
2018-06-05T01:22:04.873Z,6.45
2018-06-05T01:24:33.852Z,4.42
2018-06-05T01:27:02.830Z,3.80
2018-06-05T01:29:31.822Z,6.12
2018-06-05T01:32:00.484Z,3.92
2018-06-05T01:34:29.469Z,4.00
2018-06-05T01:36:58.437Z,4.08
2018-06-05T01:39:27.608Z,4.83
2018-06-05T01:41:56.296Z,5.05
2018-06-05T01:44:25.301Z,3.95
2018-06-05T01:46:54.305Z,3.85
2018-06-05T01:49:23.420Z,4.25
2018-06-05T01:51:52.389Z,5.22
2018-06-05T01:54:21.365Z,4.05
2018-06-05T01:56:50.394Z,5.37
2018-06-05T01:59:19.357Z,4.25
2018-06-05T02:01:48.326Z,4.70
2018-06-05T02:04:17.296Z,4.40
2018-06-05T02:06:46.261Z,4.28
2018-06-05T02:09:15.249Z,4.60
2018-06-05T02:11:44.217Z,4.50
2018-06-05T02:14:13.328Z,5.50
2018-06-05T02:16:42.016Z,4.37
2018-06-05T02:19:11.000Z,4.55
2018-06-05T02:21:39.991Z,4.30
2018-06-05T02:24:08.993Z,4.87
2018-06-05T02:26:37.864Z,4.53
2018-06-05T02:29:06.850Z,4.12
2018-06-05T02:31:36.062Z,3.77
2018-06-05T02:34:05.062Z,4.22
2018-06-05T02:36:34.044Z,4.28
2018-06-05T02:39:03.073Z,4.25
2018-06-05T02:41:32.073Z,4.55
2018-06-05T02:44:01.045Z,4.62
2018-06-05T02:46:30.055Z,4.85
2018-06-05T02:48:59.070Z,3.92
2018-06-05T02:51:28.741Z,4.05
2018-06-05T02:53:57.741Z,4.17
2018-06-05T02:56:26.454Z,3.80
2018-06-05T02:58:55.438Z,3.80
2018-06-05T03:01:24.413Z,4.60
2018-06-05T03:03:53.385Z,3.98
2018-06-05T03:06:22.684Z,3.65
2018-06-05T03:08:51.664Z,4.28
2018-06-05T03:11:20.645Z,4.00
2018-06-05T03:13:49.609Z,4.30
2018-06-05T03:16:18.592Z,4.47
2018-06-05T03:18:47.549Z,3.85
2018-06-05T03:21:16.553Z,3.98
2018-06-05T03:23:45.226Z,4.22
2018-06-05T03:26:14.082Z,4.83
2018-06-05T03:28:43.067Z,5.22
2018-06-05T03:31:12.037Z,4.35
2018-06-05T03:33:41.213Z,3.92
2018-06-05T03:36:10.169Z,4.12
2018-06-05T03:38:39.149Z,4.42
2018-06-05T03:41:07.997Z,4.30
2018-06-05T03:43:36.967Z,4.17
2018-06-05T03:46:05.937Z,4.17
2018-06-05T03:48:34.908Z,4.35
2018-06-05T03:51:03.905Z,3.80
2018-06-05T03:53:32.592Z,4.40
2018-06-05T03:56:01.549Z,4.47
2018-06-05T03:58:30.817Z,4.15
2018-06-05T04:00:59.511Z,5.00
2018-06-05T04:03:28.484Z,4.40
2018-06-05T04:05:57.459Z,4.35
2018-06-05T04:08:26.437Z,4.20
2018-06-05T04:10:55.416Z,4.67
2018-06-05T04:13:24.388Z,4.35
2018-06-05T04:15:53.364Z,4.10
2018-06-05T04:18:22.351Z,4.12
2018-06-05T04:20:51.518Z,4.83
2018-06-05T04:23:20.480Z,4.17
2018-06-05T04:25:49.656Z,3.90
2018-06-05T04:28:18.817Z,4.53
2018-06-05T04:30:47.480Z,3.92
2018-06-05T04:33:16.489Z,3.85
2018-06-05T04:35:45.458Z,4.83
2018-06-05T04:38:14.664Z,4.95
2018-06-05T04:40:43.633Z,4.05
2018-06-05T04:43:12.599Z,4.85
2018-06-05T04:45:41.597Z,4.55
2018-06-05T04:48:10.580Z,4.17
2018-06-05T04:50:39.560Z,4.00
2018-06-05T04:53:08.298Z,5.03
2018-06-05T04:55:37.433Z,4.10
2018-06-05T04:58:06.410Z,5.03
2018-06-05T05:00:35.380Z,3.85
2018-06-05T05:03:04.341Z,4.45
2018-06-05T05:05:33.365Z,3.90
2018-06-05T05:08:02.337Z,4.58
2018-06-05T05:10:31.325Z,4.03
2018-06-05T05:13:00.309Z,4.85
2018-06-05T05:15:28.988Z,4.10
2018-06-05T05:17:57.968Z,4.10
2018-06-05T05:20:27.237Z,4.60
2018-06-05T05:22:55.904Z,4.12
2018-06-05T05:25:24.884Z,4.37
2018-06-05T05:27:53.861Z,4.47
2018-06-05T05:30:22.824Z,4.30
2018-06-05T05:32:51.800Z,6.47
2018-06-05T05:35:20.761Z,4.67
2018-06-05T05:37:49.957Z,11.43
2018-06-05T05:40:19.128Z,7.70
2018-06-05T05:42:48.306Z,8.28
2018-06-05T05:45:17.309Z,6.70
2018-06-05T05:47:46.277Z,5.60
2018-06-05T05:50:15.240Z,6.03
2018-06-05T05:52:43.919Z,9.63
2018-06-05T05:55:12.896Z,7.25
2018-06-05T05:57:41.844Z,7.17
2018-06-05T06:00:11.040Z,7.37
2018-06-05T06:02:40.230Z,7.30
2018-06-05T06:05:09.345Z,8.43
2018-06-05T06:07:38.322Z,7.53
2018-06-05T06:10:07.300Z,8.98
2018-06-05T06:12:36.292Z,7.70
2018-06-05T06:15:05.262Z,13.13
2018-06-05T06:17:34.223Z,10.18
2018-06-05T06:20:03.225Z,10.90
2018-06-05T06:22:31.892Z,11.83
2018-06-05T06:25:00.941Z,8.85
2018-06-05T06:27:29.906Z,8.93
2018-06-05T06:29:58.873Z,10.70
2018-06-05T06:32:27.872Z,11.57
2018-06-05T06:34:56.521Z,8.65
2018-06-05T06:37:26.222Z,12.43
2018-06-05T06:39:55.222Z,12.03
2018-06-05T06:42:24.172Z,8.80
2018-06-05T06:44:53.220Z,12.63
2018-06-05T06:47:22.217Z,16.10
2018-06-05T06:49:51.201Z,7.90
2018-06-05T06:52:20.177Z,8.00
2018-06-05T06:54:49.186Z,10.35
2018-06-05T06:57:18.355Z,11.35
2018-06-05T06:59:47.312Z,8.73
2018-06-05T07:02:16.285Z,10.90
2018-06-05T07:04:45.225Z,7.92
2018-06-05T07:07:14.173Z,8.73
2018-06-05T07:09:43.137Z,10.10
2018-06-05T07:12:12.132Z,9.58
2018-06-05T07:14:40.976Z,8.50
2018-06-05T07:17:09.936Z,9.88
2018-06-05T07:19:38.912Z,10.40
2018-06-05T07:22:07.886Z,9.00
2018-06-05T07:24:36.862Z,11.43
2018-06-05T07:27:05.825Z,7.62
2018-06-05T07:29:34.770Z,8.75
2018-06-05T07:32:03.733Z,10.80
2018-06-05T07:34:32.710Z,9.68
2018-06-05T07:37:01.662Z,9.03
2018-06-05T07:39:30.662Z,8.43
2018-06-05T07:41:59.613Z,9.15
2018-06-05T07:44:28.571Z,10.00
2018-06-05T07:46:57.590Z,11.68
2018-06-05T07:49:26.561Z,9.85
2018-06-05T07:51:55.509Z,7.72
2018-06-05T07:54:24.501Z,8.98
2018-06-05T07:56:53.493Z,7.85
2018-06-05T07:59:22.473Z,9.08
2018-06-05T08:01:51.437Z,6.70
2018-06-05T08:04:20.463Z,11.63
2018-06-05T08:06:49.581Z,8.18
2018-06-05T08:09:18.248Z,12.47
2018-06-05T08:11:47.250Z,9.05
2018-06-05T08:14:16.213Z,13.68
2018-06-05T08:16:45.801Z,9.90
2018-06-05T08:19:14.797Z,13.83
2018-06-05T08:21:43.777Z,8.25
2018-06-05T08:24:13.173Z,9.25
2018-06-05T08:26:49.316Z,7.35
2018-06-05T08:29:19.312Z,9.08
2018-06-05T08:31:48.345Z,8.10
2018-06-05T08:34:17.302Z,7.90
2018-06-05T08:36:46.287Z,9.98
2018-06-05T08:39:15.289Z,10.85
2018-06-05T08:41:44.270Z,10.20
2018-06-05T08:44:13.237Z,7.00
2018-06-05T08:46:42.199Z,9.63
2018-06-05T08:49:11.165Z,7.83
2018-06-05T08:51:40.142Z,9.38
2018-06-05T08:54:09.184Z,9.53
2018-06-05T08:56:38.293Z,9.53
2018-06-05T08:59:07.240Z,9.28
2018-06-05T09:01:36.193Z,7.97
2018-06-05T09:04:05.188Z,11.48
2018-06-05T09:06:34.153Z,6.12
2018-06-05T09:09:04.072Z,7.85
2018-06-05T09:11:33.061Z,11.03
2018-06-05T09:14:02.019Z,7.10
2018-06-05T09:16:31.017Z,6.10
2018-06-05T09:19:00.000Z,8.60
2018-06-05T09:21:28.992Z,9.20
2018-06-05T09:23:57.984Z,10.53
2018-06-05T09:26:26.972Z,10.25
2018-06-05T09:28:55.951Z,7.55
2018-06-05T09:31:25.101Z,8.98
2018-06-05T09:33:54.070Z,10.10
2018-06-05T09:36:23.037Z,7.85
2018-06-05T09:38:52.001Z,6.50
2018-06-05T09:41:20.977Z,7.40
2018-06-05T09:43:49.974Z,7.60
2018-06-05T09:46:18.940Z,5.58
2018-06-05T09:48:47.925Z,7.40
2018-06-05T09:51:16.920Z,8.75
2018-06-05T09:53:46.005Z,5.95
2018-06-05T09:56:14.993Z,6.25
2018-06-05T09:58:44.186Z,6.90
2018-06-05T10:01:13.161Z,5.58
2018-06-05T10:03:42.149Z,6.37
2018-06-05T10:06:11.117Z,5.65
2018-06-05T10:08:40.537Z,5.60
2018-06-05T10:11:09.518Z,6.62
2018-06-05T10:13:38.488Z,6.80
2018-06-05T10:16:07.445Z,7.60
2018-06-05T10:18:36.424Z,7.97
2018-06-05T10:21:05.418Z,7.15
2018-06-05T10:23:34.381Z,6.60
2018-06-05T10:26:03.367Z,6.00
2018-06-05T10:28:32.341Z,5.65
2018-06-05T10:31:01.335Z,6.62
2018-06-05T10:33:30.511Z,8.58
2018-06-05T10:35:59.488Z,6.70
2018-06-05T10:38:28.484Z,5.95
2018-06-05T10:40:57.466Z,5.72
2018-06-05T10:43:26.479Z,7.25
2018-06-05T10:45:55.456Z,6.20
2018-06-05T10:48:24.430Z,5.70
2018-06-05T10:50:53.399Z,5.12
2018-06-05T10:53:22.357Z,5.75
2018-06-05T10:55:51.333Z,6.00
2018-06-05T10:58:20.509Z,7.12
2018-06-05T11:00:49.670Z,6.87
2018-06-05T11:03:18.352Z,5.80
2018-06-05T11:05:47.361Z,6.95
2018-06-05T11:08:16.329Z,5.60
2018-06-05T11:10:45.306Z,5.22
2018-06-05T11:13:14.305Z,5.25
2018-06-05T11:15:42.980Z,5.62
2018-06-05T11:18:11.960Z,5.58
2018-06-05T11:20:40.952Z,6.50
2018-06-05T11:23:10.097Z,5.58
2018-06-05T11:25:39.113Z,6.80
2018-06-05T11:28:08.093Z,5.10
2018-06-05T11:30:37.077Z,6.92
2018-06-05T11:33:06.052Z,5.95
2018-06-05T11:35:35.025Z,5.25
2018-06-05T11:38:04.258Z,5.60
2018-06-05T11:40:33.269Z,5.28
2018-06-05T11:43:02.237Z,5.85
2018-06-05T11:45:31.211Z,6.08
2018-06-05T11:48:00.375Z,7.10
2018-06-05T11:50:29.349Z,5.62
2018-06-05T11:52:58.320Z,6.65
2018-06-05T11:55:27.289Z,5.35
2018-06-05T11:57:56.281Z,8.20
2018-06-05T12:00:25.288Z,7.28
2018-06-05T12:02:54.257Z,5.65
2018-06-05T12:05:23.235Z,4.72
2018-06-05T12:07:52.206Z,8.50
2018-06-05T12:10:21.481Z,4.90
2018-06-05T12:12:50.461Z,5.35
2018-06-05T12:15:19.457Z,5.67
2018-06-05T12:17:48.474Z,4.90
2018-06-05T12:20:17.626Z,5.50
2018-06-05T12:22:46.616Z,4.87
2018-06-05T12:25:15.593Z,4.45
2018-06-05T12:27:44.299Z,5.25
2018-06-05T12:30:13.273Z,4.78
2018-06-05T12:32:42.256Z,5.58
2018-06-05T12:35:11.401Z,4.85
2018-06-05T12:37:40.486Z,4.90
2018-06-05T12:40:09.456Z,5.08
2018-06-05T12:42:38.462Z,5.72
2018-06-05T12:45:07.820Z,5.08
2018-06-05T12:47:36.508Z,5.67
2018-06-05T12:50:05.562Z,5.70
2018-06-05T12:52:34.565Z,4.75
2018-06-05T12:55:03.558Z,4.72
2018-06-05T12:57:32.542Z,5.30
2018-06-05T13:00:01.523Z,4.85
2018-06-05T13:02:30.513Z,4.40
2018-06-05T13:04:59.486Z,4.87
2018-06-05T13:07:28.622Z,6.33
2018-06-05T13:09:57.797Z,4.53
2018-06-05T13:12:26.901Z,4.62
2018-06-05T13:14:55.872Z,5.97
2018-06-05T13:17:24.914Z,5.22
2018-06-05T13:19:54.191Z,5.78
2018-06-05T13:22:22.867Z,4.15
2018-06-05T13:24:51.866Z,5.17
2018-06-05T13:27:20.872Z,5.67
2018-06-05T13:29:49.887Z,4.42
2018-06-05T13:32:19.008Z,4.37
2018-06-05T13:34:48.100Z,6.62
2018-06-05T13:37:17.230Z,5.55
2018-06-05T13:39:46.314Z,5.25
2018-06-05T13:42:15.312Z,4.95
2018-06-05T13:44:44.482Z,4.87
2018-06-05T13:47:13.449Z,4.37
2018-06-05T13:49:42.460Z,5.00
2018-06-05T13:52:11.434Z,4.47
2018-06-05T13:54:40.592Z,4.67
2018-06-05T13:57:09.571Z,8.05
2018-06-05T13:59:38.566Z,4.80
2018-06-05T14:02:07.541Z,4.10
2018-06-05T14:04:36.681Z,4.40
2018-06-05T14:07:05.364Z,6.85
2018-06-05T14:09:34.341Z,4.47
2018-06-05T14:12:03.351Z,4.03
2018-06-05T14:14:32.725Z,4.72
2018-06-05T14:17:02.050Z,5.80
2018-06-05T14:19:31.016Z,6.60
2018-06-05T14:21:59.996Z,4.97
2018-06-05T14:24:29.009Z,4.60
2018-06-05T14:26:57.984Z,5.85
2018-06-05T14:29:26.970Z,5.08
2018-06-05T14:31:55.989Z,4.60
2018-06-05T14:34:25.161Z,4.22
2018-06-05T14:36:54.174Z,4.35
2018-06-05T14:39:23.137Z,4.05
2018-06-05T14:41:52.105Z,5.62
2018-06-05T14:44:21.085Z,6.72
2018-06-05T14:46:50.345Z,6.87
2018-06-05T14:49:19.332Z,5.47
2018-06-05T14:51:48.281Z,7.15
2018-06-05T14:54:17.235Z,4.00
2018-06-05T14:56:46.234Z,4.65
2018-06-05T14:59:15.193Z,5.87
2018-06-05T15:01:44.188Z,4.60
2018-06-05T15:04:13.633Z,5.20
2018-06-05T15:06:42.657Z,5.83
2018-06-05T15:09:11.786Z,4.37
2018-06-05T15:11:40.768Z,5.17
2018-06-05T15:14:09.790Z,6.10
2018-06-05T15:16:38.749Z,5.60
2018-06-05T15:19:07.717Z,4.62
2018-06-05T15:21:36.673Z,7.83
2018-06-05T15:24:05.433Z,4.78
2018-06-05T15:26:34.406Z,5.05
2018-06-05T15:29:03.572Z,4.42
2018-06-05T15:31:32.528Z,6.33
2018-06-05T15:34:01.609Z,6.37
2018-06-05T15:36:30.729Z,5.62
2018-06-05T15:38:59.873Z,4.17
2018-06-05T15:41:28.842Z,5.03
2018-06-05T15:43:57.813Z,7.28
2018-06-05T15:46:26.962Z,5.80
2018-06-05T15:48:56.473Z,4.35
2018-06-05T15:51:25.129Z,4.30
2018-06-05T15:53:54.122Z,4.08
2018-06-05T15:56:23.097Z,4.25
2018-06-05T15:58:52.058Z,5.17
2018-06-05T16:01:21.049Z,4.37
2018-06-05T16:03:50.013Z,4.30
2018-06-05T16:06:19.037Z,4.15
2018-06-05T16:08:48.025Z,5.35
2018-06-05T16:11:16.706Z,4.80
2018-06-05T16:13:45.717Z,5.67
2018-06-05T16:16:14.674Z,4.47
2018-06-05T16:18:43.655Z,4.40
2018-06-05T16:21:12.634Z,5.65
2018-06-05T16:23:41.620Z,6.22
2018-06-05T16:26:10.645Z,4.22
2018-06-05T16:28:39.635Z,5.83
2018-06-05T16:31:08.635Z,4.95
2018-06-05T16:33:37.621Z,5.22
2018-06-05T16:36:06.621Z,6.75
2018-06-05T16:38:35.601Z,5.35
2018-06-05T16:41:04.581Z,5.45
2018-06-05T16:43:33.577Z,6.25
2018-06-05T16:46:02.540Z,5.08
2018-06-05T16:48:31.521Z,5.55
2018-06-05T16:51:00.544Z,5.78
2018-06-05T16:53:29.510Z,5.28
2018-06-05T16:55:58.489Z,4.70
2018-06-05T16:58:27.522Z,4.62
2018-06-05T17:00:56.657Z,4.75
2018-06-05T17:03:25.633Z,6.33
2018-06-05T17:05:54.312Z,6.15
2018-06-05T17:08:23.289Z,6.28
2018-06-05T17:10:52.561Z,4.40
2018-06-05T17:13:21.253Z,5.97
2018-06-05T17:15:50.604Z,5.42
2018-06-05T17:18:19.400Z,5.95
2018-06-05T17:20:48.399Z,7.40
2018-06-05T17:23:17.373Z,14.25
2018-06-05T17:25:46.518Z,4.67
2018-06-05T17:28:15.499Z,6.50
2018-06-05T17:30:44.473Z,4.85
2018-06-05T17:33:13.437Z,5.20
2018-06-05T17:35:42.437Z,5.72
2018-06-05T17:38:11.421Z,4.83
2018-06-05T17:40:40.392Z,5.15
2018-06-05T17:43:09.365Z,4.65
2018-06-05T17:45:38.387Z,7.83
2018-06-05T17:48:07.513Z,6.05
2018-06-05T17:50:36.500Z,5.33
2018-06-05T17:53:05.481Z,4.75
2018-06-05T17:55:34.453Z,5.47
2018-06-05T17:58:03.417Z,6.08
2018-06-05T18:00:32.414Z,4.70
2018-06-05T18:03:01.416Z,6.62
2018-06-05T18:05:30.388Z,7.42
2018-06-05T18:07:59.394Z,6.33
2018-06-05T18:10:28.550Z,6.17
2018-06-05T18:12:57.484Z,4.55
2018-06-05T18:15:26.493Z,5.58
2018-06-05T18:17:55.537Z,7.05
2018-06-05T18:20:24.531Z,5.22
2018-06-05T18:22:53.525Z,8.33
2018-06-05T18:25:22.761Z,5.50
2018-06-05T18:27:51.761Z,5.12
2018-06-05T18:30:20.768Z,6.62
2018-06-05T18:32:49.770Z,8.88
2018-06-05T18:35:18.757Z,9.73
2018-06-05T18:37:47.713Z,5.65
2018-06-05T18:40:16.882Z,7.12
2018-06-05T18:42:45.866Z,5.62
2018-06-05T18:45:14.848Z,10.08
2018-06-05T18:47:43.807Z,9.03
2018-06-05T18:50:12.464Z,8.35
2018-06-05T18:52:41.437Z,10.18
2018-06-05T18:55:10.589Z,7.83
2018-06-05T18:57:39.537Z,7.83
2018-06-05T19:00:08.555Z,7.95
2018-06-05T19:02:37.680Z,8.00
2018-06-05T19:05:06.685Z,7.87
2018-06-05T19:07:35.657Z,12.95
2018-06-05T19:10:04.335Z,7.03
2018-06-05T19:12:33.320Z,6.17
2018-06-05T19:15:02.286Z,9.25
2018-06-05T19:17:31.269Z,9.25
2018-06-05T19:20:00.401Z,6.42
2018-06-05T19:22:29.381Z,6.33
2018-06-05T19:24:58.349Z,9.68
2018-06-05T19:27:27.317Z,8.35
2018-06-05T19:29:56.493Z,12.95
2018-06-05T19:32:25.619Z,7.78
2018-06-05T19:34:54.292Z,6.97
2018-06-05T19:37:23.281Z,7.62
2018-06-05T19:39:52.277Z,8.10
2018-06-05T19:42:21.409Z,7.92
2018-06-05T19:44:50.592Z,10.50
2018-06-05T19:47:19.306Z,6.15
2018-06-05T19:49:48.290Z,7.80
2018-06-05T19:52:17.265Z,9.00
2018-06-05T19:54:46.384Z,8.88
2018-06-05T19:57:15.210Z,9.15
2018-06-05T19:59:44.186Z,5.42
2018-06-05T20:02:13.181Z,9.43
2018-06-05T20:04:42.154Z,6.83
2018-06-05T20:07:10.813Z,8.75
2018-06-05T20:09:39.770Z,8.83
2018-06-05T20:12:08.440Z,10.48
2018-06-05T20:14:37.404Z,8.18
2018-06-05T20:17:06.361Z,8.68
2018-06-05T20:19:35.334Z,8.50
2018-06-05T20:22:04.548Z,6.80
2018-06-05T20:24:33.709Z,7.85
2018-06-05T20:27:02.380Z,5.40
2018-06-05T20:29:31.415Z,8.10
2018-06-05T20:32:00.382Z,8.05
2018-06-05T20:34:29.347Z,7.25
2018-06-05T20:36:58.328Z,8.50
2018-06-05T20:39:27.304Z,11.08
2018-06-05T20:41:56.264Z,8.63
2018-06-05T20:44:25.245Z,9.25
2018-06-05T20:46:54.216Z,7.35
2018-06-05T20:49:23.461Z,6.28
2018-06-05T20:51:52.468Z,7.35
2018-06-05T20:54:21.665Z,6.37
2018-06-05T20:56:50.822Z,7.70
2018-06-05T20:59:19.797Z,7.92
2018-06-05T21:01:48.749Z,5.20
2018-06-05T21:04:17.728Z,5.62
2018-06-05T21:06:46.709Z,9.18
2018-06-05T21:09:15.705Z,6.83
2018-06-05T21:11:44.731Z,5.50
2018-06-05T21:14:13.865Z,7.45
2018-06-05T21:16:42.837Z,5.08
2018-06-05T21:19:12.061Z,6.65
2018-06-05T21:21:41.044Z,7.00
2018-06-05T21:24:10.208Z,5.72
2018-06-05T21:26:39.053Z,6.15
2018-06-05T21:29:08.040Z,7.08
2018-06-05T21:31:37.021Z,6.17
2018-06-05T21:34:06.014Z,7.92
2018-06-05T21:36:35.016Z,7.05
2018-06-05T21:39:06.571Z,4.85
2018-06-05T21:41:35.558Z,5.62
2018-06-05T21:44:05.297Z,5.70
2018-06-05T21:46:34.283Z,7.47
2018-06-05T21:49:03.273Z,5.28
2018-06-05T21:51:32.445Z,5.72
2018-06-05T21:54:01.185Z,7.72
2018-06-05T21:56:30.187Z,7.30
2018-06-05T21:58:59.377Z,5.58
2018-06-05T22:01:28.570Z,6.62
2018-06-05T22:03:57.541Z,7.35
2018-06-05T22:06:26.525Z,5.25
2018-06-05T22:08:55.501Z,5.35
2018-06-05T22:11:24.662Z,6.12
2018-06-05T22:13:53.330Z,4.50
2018-06-05T22:16:22.300Z,8.48
2018-06-05T22:18:51.273Z,5.05
2018-06-05T22:21:20.433Z,5.85
2018-06-05T22:23:49.116Z,8.15
2018-06-05T22:26:18.078Z,4.67
2018-06-05T22:28:47.405Z,5.28
2018-06-05T22:31:16.537Z,5.17
2018-06-05T22:33:45.211Z,6.70
2018-06-05T22:36:15.854Z,4.50
2018-06-05T22:38:44.857Z,5.70
2018-06-05T22:41:13.833Z,7.35
2018-06-05T22:43:42.801Z,5.78
2018-06-05T22:46:11.781Z,5.25
2018-06-05T22:48:40.884Z,4.33
2018-06-05T22:51:09.580Z,5.00
2018-06-05T22:53:38.556Z,5.83
2018-06-05T22:56:07.930Z,5.05
2018-06-05T22:58:36.958Z,6.67
2018-06-05T23:01:06.082Z,4.72
2018-06-05T23:03:35.080Z,5.62
2018-06-05T23:06:04.226Z,5.75
2018-06-05T23:08:32.905Z,6.53
2018-06-05T23:11:01.876Z,4.87
2018-06-05T23:13:30.881Z,4.65
2018-06-05T23:16:00.025Z,4.58
2018-06-05T23:18:28.997Z,6.05
2018-06-05T23:20:57.980Z,5.03
2018-06-05T23:23:26.964Z,4.87
2018-06-05T23:25:55.934Z,4.65
2018-06-05T23:28:24.942Z,7.12
2018-06-05T23:30:53.925Z,4.67
2018-06-05T23:33:22.885Z,5.45
2018-06-05T23:35:51.861Z,7.30
2018-06-05T23:38:20.822Z,5.40
2018-06-05T23:40:49.796Z,5.87
2018-06-05T23:43:18.785Z,4.97
2018-06-05T23:45:47.772Z,5.10
2018-06-05T23:48:16.766Z,4.83
2018-06-05T23:50:45.730Z,5.67
2018-06-05T23:53:14.407Z,4.25
2018-06-05T23:55:43.413Z,5.95
2018-06-05T23:58:12.384Z,4.55
